createdAt,value
2019-05-10T00:00:13.296Z,22.50
2019-05-10T00:02:59.246Z,22.10
2019-05-10T00:05:45.642Z,12.30
2019-05-10T00:08:31.618Z,19.77
2019-05-10T00:11:07.560Z,17.37
2019-05-10T00:13:50.029Z,14.33
2019-05-10T00:16:18.486Z,14.47
2019-05-10T00:18:46.928Z,18.67
2019-05-10T00:21:15.430Z,22.00
2019-05-10T00:23:43.870Z,21.30
2019-05-10T00:26:12.311Z,15.27
2019-05-10T00:28:40.786Z,13.83
2019-05-10T00:31:09.237Z,16.90
2019-05-10T00:33:37.807Z,18.47
2019-05-10T00:36:06.367Z,15.60
2019-05-10T00:38:34.814Z,16.60
2019-05-10T00:41:03.411Z,13.67
2019-05-10T00:43:31.848Z,18.07
2019-05-10T00:46:00.433Z,15.37
2019-05-10T00:48:29.070Z,17.13
2019-05-10T00:50:57.505Z,13.27
2019-05-10T00:53:26.127Z,16.97
2019-05-10T00:55:54.636Z,19.87
2019-05-10T00:58:23.094Z,16.77
2019-05-10T01:00:51.549Z,18.40
2019-05-10T01:03:19.986Z,17.90
2019-05-10T01:05:48.538Z,15.67
2019-05-10T01:08:17.055Z,18.83
2019-05-10T01:10:45.558Z,15.57
2019-05-10T01:13:14.190Z,13.23
2019-05-10T01:15:46.589Z,19.23
2019-05-10T01:18:13.784Z,16.27
2019-05-10T01:20:42.290Z,15.80
2019-05-10T01:23:10.787Z,20.77
2019-05-10T01:25:39.210Z,18.07
2019-05-10T01:28:07.706Z,13.80
2019-05-10T01:30:36.169Z,15.07
2019-05-10T01:33:04.605Z,18.67
2019-05-10T01:35:33.050Z,17.47
2019-05-10T01:38:01.806Z,21.60
2019-05-10T01:40:30.253Z,20.80
2019-05-10T01:42:58.690Z,17.57
2019-05-10T01:45:27.246Z,22.03
2019-05-10T01:47:55.780Z,19.47
2019-05-10T01:50:24.287Z,19.03
2019-05-10T01:52:52.768Z,17.33
2019-05-10T01:55:21.318Z,15.60
2019-05-10T01:57:49.886Z,18.47
2019-05-10T02:00:19.092Z,16.87
2019-05-10T02:02:47.595Z,20.80
2019-05-10T02:05:16.445Z,19.57
2019-05-10T02:07:44.887Z,20.37
2019-05-10T02:10:13.407Z,15.70
2019-05-10T02:12:41.931Z,18.03
2019-05-10T02:15:10.370Z,19.93
2019-05-10T02:17:38.834Z,20.90
2019-05-10T02:20:07.278Z,21.27
2019-05-10T02:22:35.734Z,18.37
2019-05-10T02:25:05.840Z,21.63
2019-05-10T02:27:34.287Z,28.53
2019-05-10T02:30:02.768Z,22.20
2019-05-10T02:32:31.345Z,21.27
2019-05-10T02:34:59.789Z,19.90
2019-05-10T02:37:28.286Z,25.00
2019-05-10T02:39:56.738Z,25.73
2019-05-10T02:42:25.195Z,23.50
2019-05-10T02:44:53.694Z,22.70
2019-05-10T02:47:22.123Z,21.03
2019-05-10T02:49:50.560Z,21.57
2019-05-10T02:52:19.038Z,29.90
2019-05-10T02:54:47.591Z,20.90
2019-05-10T02:57:16.037Z,22.07
2019-05-10T02:59:44.487Z,23.83
2019-05-10T03:02:13.114Z,24.37
2019-05-10T03:04:41.573Z,32.97
2019-05-10T03:07:10.044Z,34.10
2019-05-10T03:09:38.495Z,23.03
2019-05-10T03:12:16.242Z,32.10
2019-05-10T03:14:44.724Z,30.00
2019-05-10T03:17:13.272Z,30.10
2019-05-10T03:19:41.739Z,30.47
2019-05-10T03:22:10.237Z,26.40
2019-05-10T03:24:38.727Z,30.13
2019-05-10T03:27:07.199Z,44.73
2019-05-10T03:29:35.713Z,36.93
2019-05-10T03:32:04.220Z,34.60
2019-05-10T03:34:32.732Z,32.53
2019-05-10T03:37:01.234Z,45.27
2019-05-10T03:39:29.855Z,47.63
2019-05-10T03:41:58.385Z,59.83
2019-05-10T03:44:26.891Z,59.07
2019-05-10T03:46:55.460Z,41.53
2019-05-10T03:49:23.903Z,44.57
2019-05-10T03:51:52.348Z,59.20
2019-05-10T03:54:20.848Z,50.83
2019-05-10T03:56:49.292Z,46.23
2019-05-10T03:59:17.722Z,48.43
2019-05-10T04:01:46.229Z,59.60
2019-05-10T04:04:14.667Z,46.97
2019-05-10T04:06:43.107Z,41.63
2019-05-10T04:09:11.591Z,44.23
2019-05-10T04:11:40.101Z,68.70
2019-05-10T04:14:08.551Z,83.73
2019-05-10T04:16:37.100Z,83.60
2019-05-10T04:19:05.536Z,59.43
2019-05-10T04:21:33.997Z,79.70
2019-05-10T04:24:02.578Z,67.97
2019-05-10T04:26:30.998Z,58.87
2019-05-10T04:28:59.463Z,41.87
2019-05-10T04:31:27.943Z,49.80
2019-05-10T04:33:56.407Z,59.20
2019-05-10T04:36:24.850Z,49.53
2019-05-10T04:38:53.413Z,57.17
2019-05-10T04:41:21.968Z,62.83
2019-05-10T04:43:50.424Z,55.57
2019-05-10T04:46:18.871Z,45.93
2019-05-10T04:48:47.347Z,53.13
2019-05-10T04:51:15.810Z,56.27
2019-05-10T04:53:44.311Z,46.83
2019-05-10T04:56:12.812Z,49.87
2019-05-10T04:58:41.290Z,64.50
2019-05-10T05:01:09.758Z,63.70
2019-05-10T05:03:38.205Z,58.77
2019-05-10T05:06:06.689Z,54.40
2019-05-10T05:08:35.235Z,58.57
2019-05-10T05:11:03.743Z,53.60
2019-05-10T05:13:32.191Z,43.17
2019-05-10T05:16:00.622Z,46.33
2019-05-10T05:18:29.178Z,50.33
2019-05-10T05:20:57.628Z,50.50
2019-05-10T05:23:26.107Z,56.23
2019-05-10T05:25:54.711Z,48.03
2019-05-10T05:28:24.661Z,41.63
2019-05-10T05:30:53.318Z,43.83
2019-05-10T05:33:21.872Z,45.80
2019-05-10T05:35:50.315Z,51.23
2019-05-10T05:38:18.814Z,42.20
2019-05-10T05:40:47.333Z,49.90
2019-05-10T05:43:15.770Z,43.70
2019-05-10T05:45:44.367Z,51.20
2019-05-10T05:48:16.196Z,52.73
2019-05-10T05:50:42.908Z,42.37
2019-05-10T05:53:11.390Z,41.87
2019-05-10T05:55:39.862Z,51.30
2019-05-10T05:58:25.230Z,61.33
2019-05-10T06:00:44.862Z,46.27
2019-05-10T06:03:08.652Z,44.47
2019-05-10T06:05:37.483Z,38.17
2019-05-10T06:08:21.473Z,47.33
2019-05-10T06:10:36.230Z,47.80
2019-05-10T06:13:04.669Z,48.77
2019-05-10T06:15:33.147Z,49.67
2019-05-10T06:18:03.519Z,52.37
2019-05-10T06:20:31.761Z,57.73
2019-05-10T06:23:06.419Z,57.70
2019-05-10T06:25:39.295Z,61.20
2019-05-10T06:28:00.526Z,51.93
2019-05-10T06:30:29.083Z,54.30
2019-05-10T06:33:00.991Z,70.90
2019-05-10T06:35:27.731Z,50.70
2019-05-10T06:37:56.223Z,58.03
2019-05-10T06:40:36.001Z,54.53
2019-05-10T06:42:55.100Z,49.53
2019-05-10T06:45:23.638Z,50.50
2019-05-10T06:47:53.398Z,50.63
2019-05-10T06:50:29.251Z,47.70
2019-05-10T06:52:52.359Z,55.80
2019-05-10T06:55:20.951Z,49.97
2019-05-10T06:57:50.481Z,52.90
2019-05-10T07:00:19.756Z,44.03
2019-05-10T07:02:48.165Z,60.63
2019-05-10T07:05:16.650Z,52.90
2019-05-10T07:07:45.669Z,44.73
2019-05-10T07:10:19.212Z,58.80
2019-05-10T07:12:45.445Z,54.67
2019-05-10T07:15:14.225Z,57.07
2019-05-10T07:17:47.011Z,48.37
2019-05-10T07:20:12.875Z,48.97
2019-05-10T07:22:41.338Z,60.50
2019-05-10T07:25:09.983Z,64.93
2019-05-10T07:27:38.891Z,55.43
2019-05-10T07:30:07.629Z,51.47
2019-05-10T07:32:36.154Z,46.83
2019-05-10T07:35:05.951Z,48.07
2019-05-10T07:37:35.076Z,45.07
2019-05-10T07:40:05.562Z,40.57
2019-05-10T07:42:34.122Z,42.93
2019-05-10T07:45:02.814Z,48.20
2019-05-10T07:47:32.632Z,48.93
2019-05-10T07:50:03.935Z,50.87
2019-05-10T07:52:36.557Z,51.23
2019-05-10T07:55:01.623Z,57.60
2019-05-10T07:57:30.318Z,57.17
2019-05-10T08:00:03.647Z,53.67
2019-05-10T08:02:29.149Z,59.13
2019-05-10T08:04:58.433Z,55.03
2019-05-10T08:07:29.228Z,48.87
2019-05-10T08:09:59.463Z,45.27
2019-05-10T08:12:29.337Z,67.93
2019-05-10T08:14:59.029Z,52.53
2019-05-10T08:17:28.709Z,53.70
2019-05-10T08:19:57.346Z,44.63
2019-05-10T08:22:25.761Z,43.63
2019-05-10T08:24:56.313Z,40.10
2019-05-10T08:27:24.466Z,43.63
2019-05-10T08:30:15.818Z,42.97
2019-05-10T08:32:25.529Z,39.77
2019-05-10T08:34:55.921Z,44.77
2019-05-10T08:37:30.928Z,44.60
2019-05-10T08:39:55.930Z,36.47
2019-05-10T08:42:40.186Z,35.83
2019-05-10T08:45:03.664Z,34.23
2019-05-10T08:47:27.634Z,34.33
2019-05-10T08:50:09.572Z,36.47
2019-05-10T08:52:30.856Z,39.07
2019-05-10T08:54:55.352Z,34.07
2019-05-10T08:57:23.871Z,30.13
2019-05-10T08:59:54.159Z,28.23
2019-05-10T09:02:28.864Z,26.00
2019-05-10T09:04:53.084Z,26.17
2019-05-10T09:07:23.279Z,23.17
2019-05-10T09:09:53.093Z,22.57
2019-05-10T09:12:23.057Z,28.27
2019-05-10T09:14:57.646Z,21.03
2019-05-10T09:17:28.160Z,22.00
2019-05-10T09:19:53.530Z,16.63
2019-05-10T09:22:25.891Z,21.07
2019-05-10T09:24:53.200Z,21.10
2019-05-10T09:27:22.477Z,24.07
2019-05-10T09:29:52.897Z,20.43
2019-05-10T09:32:28.611Z,17.37
2019-05-10T09:34:54.011Z,25.20
2019-05-10T09:37:22.866Z,19.40
2019-05-10T09:39:54.872Z,19.93
2019-05-10T09:42:26.762Z,17.20
2019-05-10T09:44:52.672Z,27.07
2019-05-10T09:47:22.198Z,14.90
2019-05-10T09:49:54.209Z,15.60
2019-05-10T09:52:21.109Z,12.37
2019-05-10T09:54:49.720Z,15.57
2019-05-10T09:57:18.277Z,12.80
2019-05-10T09:59:47.107Z,13.73
2019-05-10T10:02:18.618Z,13.93
2019-05-10T10:04:47.362Z,10.90
2019-05-10T10:07:18.726Z,13.23
2019-05-10T10:09:47.739Z,8.73
2019-05-10T10:12:17.581Z,10.43
2019-05-10T10:14:47.242Z,10.43
2019-05-10T10:17:18.360Z,8.37
2019-05-10T10:19:48.056Z,7.77
2019-05-10T10:22:17.403Z,7.70
2019-05-10T10:24:49.125Z,7.90
2019-05-10T10:27:17.218Z,7.47
2019-05-10T10:29:47.446Z,6.23
2019-05-10T10:32:15.962Z,7.20
2019-05-10T10:34:44.471Z,7.77
2019-05-10T10:37:14.716Z,10.30
2019-05-10T10:39:43.037Z,8.00
2019-05-10T10:42:13.221Z,8.20
2019-05-10T10:44:41.848Z,10.87
2019-05-10T10:47:10.330Z,16.07
2019-05-10T10:49:38.786Z,8.07
2019-05-10T10:52:11.386Z,6.53
2019-05-10T10:54:39.814Z,6.03
2019-05-10T10:57:08.024Z,7.70
2019-05-10T10:59:37.351Z,7.13
2019-05-10T11:02:29.027Z,7.57
2019-05-10T11:04:40.450Z,7.20
2019-05-10T11:07:10.382Z,9.03
2019-05-10T11:09:36.632Z,9.87
2019-05-10T11:12:05.466Z,7.93
2019-05-10T11:14:40.044Z,7.50
2019-05-10T11:17:04.130Z,9.57
2019-05-10T11:19:32.596Z,6.23
2019-05-10T11:22:02.251Z,10.20
2019-05-10T11:24:31.346Z,7.23
2019-05-10T11:27:01.089Z,9.60
2019-05-10T11:29:30.868Z,8.33
2019-05-10T11:32:14.411Z,6.90
2019-05-10T11:34:37.578Z,4.80
2019-05-10T11:36:59.722Z,6.00
2019-05-10T11:39:33.263Z,7.37
2019-05-10T11:42:02.266Z,7.27
2019-05-10T11:44:28.522Z,8.40
2019-05-10T11:46:56.970Z,6.60
2019-05-10T11:49:25.439Z,8.50
2019-05-10T11:51:58.583Z,9.27
2019-05-10T11:54:24.313Z,7.57
2019-05-10T11:56:58.476Z,4.57
2019-05-10T11:59:27.399Z,8.97
2019-05-10T12:01:57.839Z,6.70
2019-05-10T12:04:33.082Z,8.17
2019-05-10T12:06:53.860Z,4.73
2019-05-10T12:09:24.473Z,8.53
2019-05-10T12:11:56.444Z,4.90
2019-05-10T12:14:22.837Z,4.93
2019-05-10T12:16:54.631Z,6.43
2019-05-10T12:19:21.663Z,6.53
2019-05-10T12:21:52.625Z,7.43
2019-05-10T12:24:33.413Z,4.77
2019-05-10T12:29:21.298Z,7.60
2019-05-10T12:31:53.366Z,7.13
2019-05-10T12:34:20.694Z,6.67
2019-05-10T12:36:51.735Z,8.17
2019-05-10T12:39:21.431Z,5.93
2019-05-10T12:41:52.249Z,5.30
2019-05-10T12:44:19.746Z,8.20
2019-05-10T12:46:51.007Z,4.03
2019-05-10T12:49:18.503Z,7.63
2019-05-10T12:51:46.999Z,7.53
2019-05-10T12:54:18.460Z,5.53
2019-05-10T12:56:46.250Z,7.03
2019-05-10T12:59:14.902Z,5.00
2019-05-10T13:01:43.419Z,4.97
2019-05-10T13:04:14.676Z,5.27
2019-05-10T13:06:42.022Z,6.07
2019-05-10T13:09:10.472Z,6.57
2019-05-10T13:11:39.056Z,6.57
2019-05-10T13:14:09.540Z,5.73
2019-05-10T13:16:38.003Z,5.67
2019-05-10T13:19:06.611Z,5.97
2019-05-10T13:21:35.131Z,8.13
2019-05-10T13:24:03.632Z,4.57
2019-05-10T13:26:32.331Z,7.17
2019-05-10T13:29:02.174Z,5.43
2019-05-10T13:31:30.918Z,5.97
2019-05-10T13:33:59.399Z,4.80
2019-05-10T13:36:30.818Z,6.63
2019-05-10T13:38:58.412Z,5.77
2019-05-10T13:41:26.873Z,3.97
2019-05-10T13:43:58.894Z,4.87
2019-05-10T13:46:25.541Z,5.47
2019-05-10T13:48:54.032Z,4.30
2019-05-10T13:51:22.470Z,7.47
2019-05-10T13:53:53.844Z,5.23
2019-05-10T13:56:22.408Z,3.50
2019-05-10T13:58:51.309Z,5.30
2019-05-10T14:01:20.002Z,5.33
2019-05-10T14:04:00.370Z,5.53
2019-05-10T14:06:19.155Z,5.93
2019-05-10T14:08:48.590Z,6.13
2019-05-10T14:11:17.899Z,4.13
2019-05-10T14:13:46.448Z,3.17
2019-05-10T14:16:19.663Z,4.70
2019-05-10T14:18:45.431Z,12.73
2019-05-10T14:21:13.829Z,4.67
2019-05-10T14:23:42.337Z,7.60
2019-05-10T14:26:15.951Z,5.23
2019-05-10T14:28:41.223Z,8.43
2019-05-10T14:31:10.130Z,6.13
2019-05-10T14:33:38.698Z,4.20
2019-05-10T14:36:07.182Z,6.97
2019-05-10T14:38:35.717Z,9.90
2019-05-10T14:41:11.104Z,7.77
2019-05-10T14:43:34.642Z,9.80
2019-05-10T14:46:03.593Z,8.77
2019-05-10T14:48:35.454Z,10.90
2019-05-10T14:51:09.866Z,7.70
2019-05-10T14:53:32.902Z,6.07
2019-05-10T14:56:01.585Z,3.93
2019-05-10T14:58:30.399Z,6.30
2019-05-10T15:00:58.844Z,5.40
2019-05-10T15:03:27.284Z,7.07
2019-05-10T15:06:00.990Z,5.50
2019-05-10T15:08:26.001Z,5.23
2019-05-10T15:10:57.422Z,3.37
2019-05-10T15:13:28.320Z,5.30
2019-05-10T15:15:56.316Z,8.43
2019-05-10T15:18:24.941Z,7.50
2019-05-10T15:20:53.420Z,3.73
2019-05-10T15:23:21.968Z,5.70
2019-05-10T15:25:57.119Z,5.97
2019-05-10T15:28:20.718Z,6.77
2019-05-10T15:30:52.353Z,8.37
2019-05-10T15:33:19.615Z,8.40
2019-05-10T15:35:51.985Z,5.60
2019-05-10T15:38:18.495Z,3.37
2019-05-10T15:40:47.084Z,7.93
2019-05-10T15:43:16.820Z,4.73
2019-05-10T15:45:51.886Z,7.90
2019-05-10T15:48:16.158Z,5.87
2019-05-10T15:50:44.851Z,4.97
2019-05-10T15:53:13.788Z,4.63
2019-05-10T15:55:42.932Z,4.43
2019-05-10T15:58:14.667Z,4.53
2019-05-10T16:00:43.238Z,6.27
2019-05-10T16:03:11.937Z,7.03
2019-05-10T16:05:43.893Z,17.30
2019-05-10T16:08:13.653Z,15.87
2019-05-10T16:10:41.164Z,15.70
2019-05-10T16:13:14.541Z,14.07
2019-05-10T16:15:40.142Z,15.97
2019-05-10T16:18:08.850Z,21.03
2019-05-10T16:20:38.912Z,15.90
2019-05-10T16:23:08.907Z,19.03
2019-05-10T16:25:41.523Z,19.03
2019-05-10T16:28:08.114Z,25.40
2019-05-10T16:30:36.746Z,23.03
2019-05-10T16:33:16.095Z,31.83
2019-05-10T16:35:49.482Z,27.50
2019-05-10T16:38:15.349Z,24.17
2019-05-10T16:40:44.617Z,22.93
2019-05-10T16:43:16.173Z,29.47
2019-05-10T16:45:43.536Z,23.80
2019-05-10T16:48:12.078Z,26.30
2019-05-10T16:50:40.733Z,24.03
2019-05-10T16:53:09.705Z,22.37
2019-05-10T16:55:40.773Z,22.60
2019-05-10T16:58:14.422Z,20.70
2019-05-10T17:00:40.850Z,20.93
2019-05-10T17:03:13.081Z,22.10
2019-05-10T17:05:52.653Z,25.00
2019-05-10T17:08:13.407Z,21.17
2019-05-10T17:10:42.449Z,25.60
2019-05-10T17:13:11.634Z,22.70
2019-05-10T17:15:41.733Z,20.47
2019-05-10T17:18:16.673Z,18.40
2019-05-10T17:20:45.465Z,19.57
2019-05-10T17:23:11.383Z,18.03
2019-05-10T17:25:40.608Z,20.27
2019-05-10T17:28:09.680Z,21.80
2019-05-10T17:30:38.214Z,18.00
2019-05-10T17:33:06.784Z,20.87
2019-05-10T17:35:36.601Z,17.97
2019-05-10T17:38:08.032Z,21.13
2019-05-10T17:40:35.963Z,19.50
2019-05-10T17:43:04.730Z,20.97
2019-05-10T17:45:34.700Z,23.63
2019-05-10T17:48:08.270Z,18.67
2019-05-10T17:50:33.996Z,32.83
2019-05-10T17:53:02.548Z,24.57
2019-05-10T17:55:31.584Z,22.90
2019-05-10T17:58:00.146Z,20.63
2019-05-10T18:00:28.739Z,20.80
2019-05-10T18:02:57.413Z,27.77
2019-05-10T18:05:26.074Z,25.10
2019-05-10T18:07:54.636Z,24.07
2019-05-10T18:10:23.463Z,24.07
2019-05-10T18:12:57.278Z,23.63
2019-05-10T18:15:22.043Z,17.40
2019-05-10T18:17:50.548Z,21.47
2019-05-10T18:20:18.989Z,18.57
2019-05-10T18:22:47.450Z,21.03
2019-05-10T18:25:20.409Z,22.60
2019-05-10T18:27:46.190Z,21.43
2019-05-10T18:30:14.834Z,24.77
2019-05-10T18:32:43.546Z,21.80
2019-05-10T18:35:14.902Z,21.17
2019-05-10T18:37:42.202Z,34.10
2019-05-10T18:40:10.811Z,32.50
2019-05-10T18:42:40.644Z,26.90
2019-05-10T18:45:09.325Z,22.20
2019-05-10T18:47:37.870Z,24.33
2019-05-10T18:50:06.502Z,35.03
2019-05-10T18:52:35.332Z,37.90
2019-05-10T18:55:04.847Z,21.17
2019-05-10T18:57:33.335Z,19.27
2019-05-10T19:00:02.093Z,20.97
2019-05-10T19:02:30.699Z,18.73
2019-05-10T19:04:59.265Z,18.97
2019-05-10T19:07:27.765Z,19.53
2019-05-10T19:09:56.227Z,19.20
2019-05-10T19:12:25.080Z,18.80
2019-05-10T19:14:53.963Z,15.67
2019-05-10T19:17:22.619Z,20.90
2019-05-10T19:19:51.253Z,21.37
2019-05-10T19:22:19.859Z,16.87
2019-05-10T19:24:48.416Z,18.90
2019-05-10T19:27:17.027Z,22.47
2019-05-10T19:29:47.795Z,19.83
2019-05-10T19:32:18.236Z,21.73
2019-05-10T19:34:48.452Z,18.07
2019-05-10T19:37:27.949Z,17.53
2019-05-10T19:39:46.347Z,19.30
2019-05-10T19:42:14.884Z,17.20
2019-05-10T19:44:43.339Z,16.80
2019-05-10T19:47:17.816Z,16.60
2019-05-10T19:49:45.977Z,18.50
2019-05-10T19:52:12.082Z,19.50
2019-05-10T19:54:40.566Z,17.33
2019-05-10T19:57:16.181Z,23.83
2019-05-10T19:59:43.928Z,18.03
2019-05-10T20:02:09.682Z,19.87
2019-05-10T20:04:38.305Z,19.53
2019-05-10T20:07:06.735Z,17.80
2019-05-10T20:09:35.182Z,19.50
2019-05-10T20:12:03.724Z,17.23
2019-05-10T20:14:32.172Z,15.57
2019-05-10T20:17:00.642Z,22.77
2019-05-10T20:19:29.140Z,17.97
2019-05-10T20:21:57.632Z,13.47
2019-05-10T20:24:26.087Z,14.73
2019-05-10T20:26:54.572Z,15.30
2019-05-10T20:29:23.082Z,14.70
2019-05-10T20:31:51.554Z,18.90
2019-05-10T20:34:23.894Z,18.27
2019-05-10T20:36:50.170Z,16.17
2019-05-10T20:39:18.722Z,14.77
2019-05-10T20:41:47.196Z,22.30
2019-05-10T20:44:15.707Z,20.17
2019-05-10T20:46:44.214Z,19.80
2019-05-10T20:49:12.662Z,20.03
2019-05-10T20:51:41.144Z,20.80
2019-05-10T20:54:09.599Z,17.10
2019-05-10T20:56:38.127Z,17.80
2019-05-10T20:59:06.659Z,20.00
2019-05-10T21:01:36.855Z,18.23
2019-05-10T21:04:06.306Z,19.77
2019-05-10T21:06:34.774Z,21.67
2019-05-10T21:09:03.654Z,19.47
2019-05-10T21:11:32.173Z,21.70
2019-05-10T21:14:00.630Z,22.27
2019-05-10T21:16:29.166Z,20.67
2019-05-10T21:18:57.616Z,17.97
2019-05-10T21:21:26.204Z,21.60
2019-05-10T21:23:54.851Z,19.83
2019-05-10T21:26:23.298Z,19.53
2019-05-10T21:28:51.807Z,19.17
2019-05-10T21:31:20.236Z,18.67
2019-05-10T21:33:48.736Z,23.53
2019-05-10T21:36:17.215Z,21.50
2019-05-10T21:38:45.680Z,22.23
2019-05-10T21:41:14.151Z,22.67
2019-05-10T21:43:42.702Z,23.83
2019-05-10T21:46:11.186Z,24.37
2019-05-10T21:48:39.645Z,22.37
2019-05-10T21:51:08.237Z,20.80
2019-05-10T21:53:36.730Z,23.43
2019-05-10T21:56:05.333Z,24.13
2019-05-10T21:58:33.826Z,24.03
2019-05-10T22:01:02.438Z,21.87
2019-05-10T22:03:31.016Z,24.23
2019-05-10T22:05:59.507Z,21.97
2019-05-10T22:08:27.945Z,24.00
2019-05-10T22:10:56.404Z,27.00
2019-05-10T22:13:24.909Z,33.73
2019-05-10T22:15:53.421Z,25.83
2019-05-10T22:18:21.889Z,22.30
2019-05-10T22:20:50.383Z,24.53
2019-05-10T22:23:18.845Z,27.40
2019-05-10T22:25:47.294Z,26.37
2019-05-10T22:28:15.797Z,27.00
2019-05-10T22:30:44.756Z,23.70
2019-05-10T22:33:13.194Z,22.67
2019-05-10T22:35:41.672Z,26.47
2019-05-10T22:38:10.421Z,27.07
2019-05-10T22:40:38.858Z,24.87
2019-05-10T22:43:07.410Z,28.90
2019-05-10T22:45:35.890Z,26.73
2019-05-10T22:48:04.466Z,24.53
2019-05-10T22:50:33.051Z,23.17
2019-05-10T22:53:01.563Z,24.50
2019-05-10T22:55:30.106Z,26.97
2019-05-10T22:57:58.521Z,24.17
2019-05-10T23:00:27.008Z,26.97
2019-05-10T23:02:55.590Z,25.50
2019-05-10T23:05:24.187Z,25.30
2019-05-10T23:07:52.654Z,25.53
2019-05-10T23:10:21.206Z,25.57
2019-05-10T23:12:49.652Z,27.17
2019-05-10T23:15:18.272Z,25.97
2019-05-10T23:17:46.724Z,25.33
2019-05-10T23:20:15.186Z,27.93
2019-05-10T23:22:43.717Z,25.30
2019-05-10T23:25:12.241Z,26.10
2019-05-10T23:27:40.763Z,25.50
2019-05-10T23:30:09.380Z,25.93
2019-05-10T23:32:37.822Z,27.20
2019-05-10T23:35:06.884Z,25.40
2019-05-10T23:37:35.358Z,25.43
2019-05-10T23:40:07.391Z,25.80
2019-05-10T23:42:36.132Z,25.07
2019-05-10T23:45:06.099Z,28.73
2019-05-10T23:47:34.547Z,23.63
2019-05-10T23:50:03.108Z,25.73
2019-05-10T23:52:31.546Z,27.87
2019-05-10T23:55:00.017Z,27.97
2019-05-10T23:57:28.482Z,25.67
2019-05-10T23:59:57.259Z,26.17
